»·PEaware :: N0216F KBOI-KSUN

N0216F :: KBOI-KSUN

FLIGHT INFORMATION

Flight Status: Arrived
Operator: Privately registered:
United States
More flights under this callsign
Pilot: Matthew K. (22656)
Aircraft: Unknown
(DA62)
More flights by this aircraft type
Origin: KBOI Boise Air Terminal/Gowen
United States
Destination: KSUN Friedman Meml
United States
More flights between these airports :: More routes between these airports
Route: +BOI3 ROARR KINZE PRESN
File this flight plan on PilotEdge
Remarks:
Altitude:
(Current/Filed)
13,000ft
Speed:
(Current/Filed)
150kts
Departed: 24-Dec-18 02:18 PM
Arrived: 24-Dec-18 03:01 PM
Distance/Time
Traveled:
84nm/0:43
Distance/Time
To Go:
Arrived

Flight Plot

Page will automatically refresh every two minutes.

Flight plan parsing failed; only flown route is shown


Map Options




Map Legend


Flown Route
Filed Route
Departure Airport
Arrival Airport
Navaid (VOR, NDB)
Fix

Horizontal Profiles

Position Reports

Time Latitude Longitude Heading Altitude Ground
Speed
24-Dec-18 13:48 43.569982 -116.230216 2 2875ft 0kts
24-Dec-18 13:49 43.569982 -116.230216 2 2875ft 0kts
24-Dec-18 13:49 43.569982 -116.230216 2 2875ft 0kts
24-Dec-18 13:50 43.569982 -116.230216 2 2875ft 0kts
24-Dec-18 13:52 43.569982 -116.230216 2 2875ft 0kts
24-Dec-18 13:53 43.569982 -116.230216 2 2875ft 0kts
24-Dec-18 13:53 43.569982 -116.230216 2 2875ft 0kts
24-Dec-18 13:55 43.569982 -116.230216 2 2875ft 0kts
24-Dec-18 13:56 43.569982 -116.230216 2 2875ft 0kts
24-Dec-18 13:57 43.569982 -116.230216 2 2875ft 0kts
24-Dec-18 13:58 43.569982 -116.230216 2 2875ft 0kts
24-Dec-18 13:59 43.569982 -116.230216 2 2875ft 0kts
24-Dec-18 14:00 43.569982 -116.230216 2 2875ft 0kts
24-Dec-18 14:01 43.569982 -116.230216 2 2875ft 0kts
24-Dec-18 14:02 43.569982 -116.230216 2 2875ft 0kts
24-Dec-18 14:03 43.569982 -116.230216 2 2875ft 0kts
24-Dec-18 14:04 43.569982 -116.230216 2 2875ft 0kts
24-Dec-18 14:05 43.569982 -116.230216 2 2875ft 0kts
24-Dec-18 14:06 43.569982 -116.230216 2 2875ft 0kts
24-Dec-18 14:07 43.569982 -116.230216 2 2875ft 0kts
24-Dec-18 14:08 43.569982 -116.230216 2 2875ft 0kts
24-Dec-18 14:09 43.569982 -116.230216 2 2875ft 0kts
24-Dec-18 14:10 43.569982 -116.230216 2 2875ft 0kts
24-Dec-18 14:11 43.569982 -116.230216 2 2875ft 0kts
24-Dec-18 14:12 43.569833 -116.230618 184 2875ft 0kts
24-Dec-18 14:13 43.569833 -116.230618 184 2875ft 0kts
24-Dec-18 14:14 43.569833 -116.230618 184 2875ft 0kts
24-Dec-18 14:15 43.569493 -116.231296 296 2875ft 16kts
24-Dec-18 14:16 43.570944 -116.236171 236 2875ft 0kts
24-Dec-18 14:17 43.569204 -116.233998 115 2875ft 54kts
24-Dec-18 14:18 43.559610 -116.203009 112 3576ft 94kts
24-Dec-18 14:19 43.550734 -116.170445 112 4770ft 91kts
24-Dec-18 14:20 43.541737 -116.137428 114 5911ft 93kts
24-Dec-18 14:21 43.532349 -116.103734 117 6982ft 96kts
24-Dec-18 14:22 43.521513 -116.069758 118 7983ft 99kts
24-Dec-18 14:23 43.510164 -116.034667 119 8971ft 102kts
24-Dec-18 14:24 43.498374 -115.998304 119 9942ft 106kts
24-Dec-18 14:25 43.486142 -115.960627 119 10897ft 110kts
24-Dec-18 14:26 43.473634 -115.922142 119 11859ft 110kts
24-Dec-18 14:27 43.460913 -115.883029 120 12791ft 113kts
24-Dec-18 14:28 43.445299 -115.835383 118 13036ft 165kts
24-Dec-18 14:29 43.424954 -115.772866 117 13022ft 186kts
24-Dec-18 14:30 43.403329 -115.706780 117 13019ft 191kts
24-Dec-18 14:31 43.381384 -115.639913 117 13018ft 192kts
24-Dec-18 14:32 43.359296 -115.572597 117 13019ft 194kts
24-Dec-18 14:33 43.336928 -115.504688 117 13018ft 195kts
24-Dec-18 14:34 43.314488 -115.436810 117 13018ft 195kts
24-Dec-18 14:35 43.292464 -115.368573 110 13020ft 196kts
24-Dec-18 14:36 43.277052 -115.297566 109 13016ft 196kts
24-Dec-18 14:37 43.261814 -115.225529 109 13016ft 196kts
24-Dec-18 14:38 43.246513 -115.153335 109 13018ft 196kts
24-Dec-18 14:39 43.232616 -115.080155 108 13022ft 197kts
24-Dec-18 14:40 43.217214 -115.007787 108 13025ft 198kts
24-Dec-18 14:41 43.201438 -114.934941 108 13027ft 199kts
24-Dec-18 14:42 43.185551 -114.861894 108 13030ft 200kts
24-Dec-18 14:43 43.169557 -114.788699 108 13032ft 200kts
24-Dec-18 14:44 43.153511 -114.715806 108 13033ft 200kts
24-Dec-18 14:45 43.137445 -114.642768 108 13033ft 200kts
24-Dec-18 14:46 43.121338 -114.569767 108 13032ft 200kts
24-Dec-18 14:47 43.105201 -114.496865 108 13031ft 200kts
24-Dec-18 14:48 43.089134 -114.424505 108 12974ft 192kts
24-Dec-18 14:49 43.114397 -114.369235 20 12083ft 193kts
24-Dec-18 14:50 43.162091 -114.341134 19 10522ft 176kts
24-Dec-18 14:51 43.200020 -114.319018 18 10246ft 154kts
24-Dec-18 14:52 43.244922 -114.295081 40 9506ft 189kts
24-Dec-18 14:53 43.275709 -114.242749 35 9029ft 154kts
24-Dec-18 14:54 43.309163 -114.207270 34 8652ft 154kts
24-Dec-18 14:55 43.343597 -114.183987 346 8667ft 131kts
24-Dec-18 14:56 43.378209 -114.204554 331 8329ft 153kts
24-Dec-18 14:57 43.419397 -114.232981 332 7317ft 174kts
24-Dec-18 14:58 43.457106 -114.258692 333 6457ft 115kts
24-Dec-18 14:59 43.484978 -114.278370 330 5653ft 98kts
24-Dec-18 15:00 43.502490 -114.294292 324 5323ft 40kts
24-Dec-18 15:01 43.505510 -114.298691 301 5323ft 8kts
24-Dec-18 15:02 43.507284 -114.301571 161 5323ft 6kts

Navigation Log

Ident Type
Flight plan parsing failed, navigation log unavailable